createdAt,value
2023-05-09T00:00:31.995Z,13.09
2023-05-09T00:03:00.176Z,13.09
2023-05-09T00:05:26.864Z,13.08
2023-05-09T00:07:53.450Z,13.07
2023-05-09T00:10:20.070Z,13.02
2023-05-09T00:12:46.647Z,12.98
2023-05-09T00:15:13.453Z,12.89
2023-05-09T00:17:40.187Z,12.89
2023-05-09T00:20:09.618Z,12.85
2023-05-09T00:22:36.201Z,12.68
2023-05-09T00:25:02.732Z,12.77
2023-05-09T00:27:29.272Z,12.73
2023-05-09T00:29:55.873Z,12.71
2023-05-09T00:32:22.481Z,12.72
2023-05-09T00:34:49.022Z,12.68
2023-05-09T00:37:17.173Z,12.69
2023-05-09T00:39:43.755Z,12.63
2023-05-09T00:42:11.631Z,12.60
2023-05-09T00:44:38.268Z,12.53
2023-05-09T00:47:05.033Z,12.52
2023-05-09T00:49:32.197Z,12.50
2023-05-09T00:51:58.867Z,12.45
2023-05-09T00:54:27.142Z,12.45
2023-05-09T00:56:54.125Z,12.48
2023-05-09T00:59:20.971Z,12.48
2023-05-09T01:01:47.525Z,12.45
2023-05-09T01:04:14.974Z,12.37
2023-05-09T01:06:47.437Z,12.40
2023-05-09T01:09:24.267Z,12.37
2023-05-09T01:12:02.958Z,12.34
2023-05-09T01:14:37.829Z,12.20
2023-05-09T01:17:12.679Z,12.35
2023-05-09T01:19:56.946Z,12.33
2023-05-09T01:22:29.706Z,12.21
2023-05-09T01:25:29.758Z,12.26
2023-05-09T01:28:12.472Z,12.25
2023-05-09T01:30:44.049Z,12.18
2023-05-09T01:33:16.033Z,12.30
2023-05-09T01:35:44.692Z,12.32
2023-05-09T01:38:17.225Z,12.36
2023-05-09T01:40:47.392Z,12.38
2023-05-09T01:43:16.474Z,12.47
2023-05-09T01:45:45.771Z,12.53
2023-05-09T01:48:14.180Z,12.56
2023-05-09T01:50:43.250Z,12.62
2023-05-09T01:53:11.126Z,12.55
2023-05-09T01:55:39.326Z,12.65
2023-05-09T01:58:06.823Z,12.66
2023-05-09T02:00:34.500Z,12.67
2023-05-09T02:03:04.110Z,12.67
2023-05-09T02:05:31.968Z,12.65
2023-05-09T02:07:59.592Z,12.67
2023-05-09T02:10:27.836Z,12.72
2023-05-09T02:12:55.285Z,12.74
2023-05-09T02:15:22.331Z,12.76
2023-05-09T02:17:50.538Z,12.79
2023-05-09T02:20:18.792Z,12.72
2023-05-09T02:22:46.603Z,12.88
2023-05-09T02:25:14.274Z,12.98
2023-05-09T02:27:42.644Z,12.94
2023-05-09T02:30:13.958Z,12.97
2023-05-09T02:32:45.206Z,12.96
2023-05-09T02:35:12.975Z,13.02
2023-05-09T02:37:41.483Z,13.02
2023-05-09T02:40:09.686Z,12.99
2023-05-09T02:42:36.349Z,13.04
2023-05-09T02:45:03.423Z,12.94
2023-05-09T02:47:30.040Z,12.96
2023-05-09T02:49:58.033Z,12.99
2023-05-09T02:52:25.307Z,13.00
2023-05-09T02:54:53.542Z,12.98
2023-05-09T02:57:20.365Z,13.04
2023-05-09T02:59:47.045Z,13.01
2023-05-09T03:02:13.631Z,13.13
2023-05-09T03:04:40.359Z,13.13
2023-05-09T03:07:07.694Z,13.14
2023-05-09T03:09:34.355Z,13.15
2023-05-09T03:12:02.317Z,13.19
2023-05-09T03:14:29.061Z,13.22
2023-05-09T03:16:55.706Z,13.25
2023-05-09T03:19:28.396Z,13.29
2023-05-09T03:21:55.071Z,13.32
2023-05-09T03:24:21.837Z,13.36
2023-05-09T03:26:48.437Z,13.41
2023-05-09T03:29:16.768Z,13.44
2023-05-09T03:31:43.490Z,13.45
2023-05-09T03:34:10.117Z,13.50
2023-05-09T03:36:37.190Z,13.39
2023-05-09T03:39:03.991Z,13.59
2023-05-09T03:41:30.740Z,13.64
2023-05-09T03:43:57.348Z,13.66
2023-05-09T03:46:25.405Z,13.71
2023-05-09T03:48:52.312Z,13.73
2023-05-09T03:51:19.066Z,13.79
2023-05-09T03:53:46.999Z,13.84
2023-05-09T03:56:14.875Z,13.87
2023-05-09T03:58:46.989Z,13.94
2023-05-09T04:01:14.653Z,13.97
2023-05-09T04:03:43.180Z,14.04
2023-05-09T04:06:12.908Z,14.01
2023-05-09T04:08:43.180Z,14.02
2023-05-09T04:11:09.974Z,14.04
2023-05-09T04:13:38.703Z,14.05
2023-05-09T04:16:13.665Z,14.05
2023-05-09T04:18:40.473Z,14.10
2023-05-09T04:21:08.400Z,14.14
2023-05-09T04:23:35.289Z,14.19
2023-05-09T04:26:02.379Z,14.28
2023-05-09T04:28:29.389Z,14.35
2023-05-09T04:30:56.812Z,14.38
2023-05-09T04:33:23.867Z,14.43
2023-05-09T04:35:51.297Z,14.45
2023-05-09T04:38:19.613Z,14.48
2023-05-09T04:40:46.669Z,14.46
2023-05-09T04:43:13.364Z,14.46
2023-05-09T04:45:40.344Z,14.57
2023-05-09T04:48:07.152Z,14.62
2023-05-09T04:50:33.785Z,14.61
2023-05-09T04:53:00.446Z,14.61
2023-05-09T04:55:28.509Z,14.73
2023-05-09T04:57:56.312Z,14.76
2023-05-09T05:00:22.970Z,14.83
2023-05-09T05:02:49.782Z,14.89
2023-05-09T05:05:16.411Z,14.90
2023-05-09T05:07:43.662Z,14.94
2023-05-09T05:10:13.050Z,14.86
2023-05-09T05:12:43.487Z,15.03
2023-05-09T05:15:13.109Z,15.05
2023-05-09T05:17:41.044Z,15.08
2023-05-09T05:20:10.146Z,15.13
2023-05-09T05:22:40.928Z,15.17
2023-05-09T05:25:08.516Z,15.22
2023-05-09T05:27:36.405Z,15.25
2023-05-09T05:30:05.609Z,15.24
2023-05-09T05:32:32.413Z,15.29
2023-05-09T05:34:59.301Z,15.35
2023-05-09T05:37:25.873Z,15.42
2023-05-09T05:39:52.400Z,15.45
2023-05-09T05:42:18.973Z,15.56
2023-05-09T05:44:45.969Z,15.55
2023-05-09T05:47:14.583Z,15.57
2023-05-09T05:49:42.672Z,15.58
2023-05-09T05:52:09.703Z,15.60
2023-05-09T05:54:37.075Z,15.65
2023-05-09T05:57:03.690Z,15.69
2023-05-09T05:59:30.590Z,15.72
2023-05-09T06:01:57.687Z,15.75
2023-05-09T06:04:26.112Z,15.81
2023-05-09T06:06:52.697Z,15.94
2023-05-09T06:09:19.212Z,16.03
2023-05-09T06:11:45.778Z,16.13
2023-05-09T06:14:12.365Z,16.18
2023-05-09T06:16:39.286Z,16.23
2023-05-09T06:19:05.830Z,16.36
2023-05-09T06:21:33.948Z,16.38
2023-05-09T06:24:06.388Z,16.30
2023-05-09T06:26:37.092Z,16.28
2023-05-09T06:29:03.748Z,16.42
2023-05-09T06:31:30.371Z,16.42
2023-05-09T06:33:57.233Z,16.49
2023-05-09T06:36:23.968Z,16.56
2023-05-09T06:38:51.840Z,16.50
2023-05-09T06:41:18.418Z,16.52
2023-05-09T06:43:44.923Z,16.58
2023-05-09T06:46:11.530Z,16.64
2023-05-09T06:48:38.200Z,16.73
2023-05-09T06:51:04.870Z,16.78
2023-05-09T06:53:31.480Z,16.71
2023-05-09T06:55:59.669Z,16.87
2023-05-09T06:58:26.750Z,16.97
2023-05-09T07:00:53.577Z,17.01
2023-05-09T07:03:20.448Z,17.08
2023-05-09T07:05:47.153Z,17.15
2023-05-09T07:08:13.750Z,17.22
2023-05-09T07:10:40.371Z,17.11
2023-05-09T07:13:08.444Z,17.09
2023-05-09T07:15:42.279Z,17.16
2023-05-09T07:18:09.678Z,17.22
2023-05-09T07:20:36.484Z,17.32
2023-05-09T07:23:03.515Z,17.42
2023-05-09T07:25:30.132Z,17.48
2023-05-09T07:27:56.945Z,17.53
2023-05-09T07:30:25.340Z,17.59
2023-05-09T07:32:52.368Z,17.60
2023-05-09T07:35:19.632Z,17.61
2023-05-09T07:37:46.465Z,17.71
2023-05-09T07:40:14.067Z,17.60
2023-05-09T07:42:40.874Z,17.86
2023-05-09T07:45:08.110Z,17.95
2023-05-09T07:47:36.306Z,18.11
2023-05-09T07:50:02.851Z,18.07
2023-05-09T07:52:29.541Z,18.15
2023-05-09T07:54:56.090Z,18.18
2023-05-09T07:57:22.846Z,18.25
2023-05-09T07:59:49.376Z,18.32
2023-05-09T08:02:16.116Z,18.38
2023-05-09T08:04:44.108Z,18.40
2023-05-09T08:07:10.668Z,18.41
2023-05-09T08:09:37.192Z,18.18
2023-05-09T08:12:04.729Z,18.46
2023-05-09T08:14:31.326Z,18.45
2023-05-09T08:16:57.998Z,18.46
2023-05-09T08:19:24.630Z,18.53
2023-05-09T08:21:52.809Z,18.52
2023-05-09T08:24:19.374Z,18.49
2023-05-09T08:26:46.048Z,18.69
2023-05-09T08:29:12.689Z,18.71
2023-05-09T08:31:39.423Z,18.84
2023-05-09T08:34:05.968Z,18.98
2023-05-09T08:36:32.806Z,19.11
2023-05-09T08:39:00.735Z,19.22
2023-05-09T08:41:27.922Z,19.47
2023-05-09T08:43:54.755Z,19.58
2023-05-09T08:46:27.824Z,19.61
2023-05-09T08:48:55.003Z,19.82
2023-05-09T08:51:22.265Z,19.92
2023-05-09T08:53:49.324Z,19.97
2023-05-09T08:56:17.532Z,20.07
2023-05-09T08:58:44.634Z,20.15
2023-05-09T09:01:13.766Z,20.14
2023-05-09T09:03:41.544Z,20.27
2023-05-09T09:06:09.344Z,20.31
2023-05-09T09:08:36.485Z,20.35
2023-05-09T09:11:03.439Z,20.17
2023-05-09T09:13:32.498Z,20.25
2023-05-09T09:16:00.920Z,20.45
2023-05-09T09:18:30.055Z,20.39
2023-05-09T09:20:59.614Z,20.43
2023-05-09T09:23:28.724Z,20.46
2023-05-09T09:25:59.901Z,20.60
2023-05-09T09:28:27.173Z,20.65
2023-05-09T09:30:55.446Z,20.70
2023-05-09T09:33:23.221Z,20.72
2023-05-09T09:35:50.148Z,20.64
2023-05-09T09:38:17.454Z,20.55
2023-05-09T09:40:49.429Z,20.62
2023-05-09T09:43:16.017Z,20.77
2023-05-09T09:45:42.866Z,20.90
2023-05-09T09:48:11.325Z,21.11
2023-05-09T09:50:37.943Z,21.28
2023-05-09T09:53:04.528Z,21.37
2023-05-09T09:55:31.612Z,21.42
2023-05-09T09:57:58.266Z,21.45
2023-05-09T10:00:26.061Z,21.38
2023-05-09T10:02:54.288Z,21.50
2023-05-09T10:05:24.081Z,21.47
2023-05-09T10:07:53.722Z,21.50
2023-05-09T10:10:20.429Z,21.46
2023-05-09T10:12:47.695Z,21.46
2023-05-09T10:15:16.785Z,21.42
2023-05-09T10:17:43.770Z,21.41
2023-05-09T10:20:13.469Z,21.54
2023-05-09T10:22:42.002Z,21.68
2023-05-09T10:25:15.018Z,21.72
2023-05-09T10:27:46.296Z,21.68
2023-05-09T10:30:17.469Z,21.80
2023-05-09T10:32:51.878Z,21.96
2023-05-09T10:35:20.450Z,22.18
2023-05-09T10:37:48.846Z,22.20
2023-05-09T10:40:15.587Z,22.29
2023-05-09T10:42:43.028Z,22.27
2023-05-09T10:45:10.976Z,22.28
2023-05-09T10:47:38.535Z,22.26
2023-05-09T10:50:06.261Z,22.25
2023-05-09T10:52:33.090Z,22.27
2023-05-09T10:55:02.839Z,22.30
2023-05-09T10:57:30.729Z,22.48
2023-05-09T10:59:58.439Z,22.67
2023-05-09T11:02:25.153Z,22.84
2023-05-09T11:05:13.455Z,22.74
2023-05-09T11:07:40.320Z,22.91
2023-05-09T11:10:10.214Z,23.12
2023-05-09T11:12:57.517Z,23.30
2023-05-09T11:15:25.289Z,23.34
2023-05-09T11:18:05.094Z,23.35
2023-05-09T11:20:34.293Z,23.43
2023-05-09T11:23:03.521Z,23.50
2023-05-09T11:25:31.588Z,23.55
2023-05-09T11:28:00.127Z,23.58
2023-05-09T11:30:36.066Z,23.71
2023-05-09T11:33:02.737Z,23.75
2023-05-09T11:35:29.318Z,23.64
2023-05-09T11:38:01.000Z,23.72
2023-05-09T11:40:29.024Z,23.92
2023-05-09T11:42:58.967Z,23.65
2023-05-09T11:45:27.727Z,23.63
2023-05-09T11:47:54.346Z,23.75
2023-05-09T11:50:21.554Z,23.66
2023-05-09T11:52:48.862Z,23.60
2023-05-09T11:55:17.177Z,23.45
2023-05-09T11:57:45.815Z,23.40
2023-05-09T12:00:15.936Z,23.40
2023-05-09T12:02:44.355Z,23.44
2023-05-09T12:05:12.682Z,23.55
2023-05-09T12:07:40.466Z,23.65
2023-05-09T12:10:08.292Z,23.73
2023-05-09T12:12:36.089Z,23.70
2023-05-09T12:15:04.402Z,23.69
2023-05-09T12:17:32.578Z,23.64
2023-05-09T12:19:59.866Z,23.56
2023-05-09T12:22:26.616Z,23.39
2023-05-09T12:24:53.244Z,23.30
2023-05-09T12:27:20.709Z,23.24
2023-05-09T12:29:47.760Z,23.38
2023-05-09T12:32:15.806Z,23.48
2023-05-09T12:34:44.556Z,23.53
2023-05-09T12:37:15.163Z,23.44
2023-05-09T12:39:42.086Z,23.39
2023-05-09T12:42:12.317Z,23.41
2023-05-09T12:44:39.195Z,23.46
2023-05-09T12:47:06.268Z,23.50
2023-05-09T12:49:37.100Z,23.67
2023-05-09T12:52:06.177Z,23.76
2023-05-09T12:54:34.497Z,23.60
2023-05-09T12:57:01.867Z,23.64
2023-05-09T12:59:29.481Z,23.60
2023-05-09T13:01:57.263Z,23.47
2023-05-09T13:04:25.280Z,23.49
2023-05-09T13:06:53.356Z,23.48
2023-05-09T13:09:21.868Z,23.49
2023-05-09T13:11:49.748Z,23.50
2023-05-09T13:14:16.703Z,23.54
2023-05-09T13:16:43.807Z,23.58
2023-05-09T13:19:10.881Z,23.63
2023-05-09T13:21:37.913Z,23.55
2023-05-09T13:24:05.704Z,23.51
2023-05-09T13:26:33.877Z,23.34
2023-05-09T13:29:00.693Z,23.29
2023-05-09T13:31:27.829Z,23.22
2023-05-09T13:33:54.438Z,23.27
2023-05-09T13:36:21.121Z,23.25
2023-05-09T13:38:47.883Z,23.14
2023-05-09T13:41:14.490Z,23.25
2023-05-09T13:43:42.670Z,23.11
2023-05-09T13:46:09.393Z,23.02
2023-05-09T13:48:36.295Z,22.99
2023-05-09T13:51:03.182Z,23.02
2023-05-09T13:53:29.728Z,22.93
2023-05-09T13:55:56.272Z,22.83
2023-05-09T13:58:22.895Z,22.72
2023-05-09T14:00:50.806Z,22.63
2023-05-09T14:03:17.505Z,22.46
2023-05-09T14:05:44.201Z,22.51
2023-05-09T14:08:10.786Z,22.34
2023-05-09T14:10:37.356Z,22.41
2023-05-09T14:13:03.930Z,22.40
2023-05-09T14:15:30.601Z,22.39
2023-05-09T14:17:58.632Z,22.35
2023-05-09T14:20:25.596Z,22.15
2023-05-09T14:22:52.123Z,22.18
2023-05-09T14:25:18.938Z,22.17
2023-05-09T14:27:45.579Z,22.19
2023-05-09T14:30:13.082Z,22.15
2023-05-09T14:32:39.910Z,22.19
2023-05-09T14:35:09.323Z,22.10
2023-05-09T14:37:36.334Z,22.03
2023-05-09T14:40:03.153Z,21.93
2023-05-09T14:42:29.718Z,21.91
2023-05-09T14:44:56.251Z,21.89
2023-05-09T14:47:22.837Z,21.80
2023-05-09T14:49:49.480Z,21.90
2023-05-09T14:52:17.506Z,21.82
2023-05-09T14:54:44.317Z,21.73
2023-05-09T14:57:10.864Z,21.79
2023-05-09T14:59:37.440Z,21.68
2023-05-09T15:02:04.005Z,21.61
2023-05-09T15:04:30.711Z,21.55
2023-05-09T15:06:57.657Z,21.43
2023-05-09T15:09:25.822Z,21.34
2023-05-09T15:11:52.409Z,21.20
2023-05-09T15:14:18.922Z,21.01
2023-05-09T15:16:45.536Z,20.82
2023-05-09T15:19:12.245Z,20.70
2023-05-09T15:21:38.822Z,20.53
2023-05-09T15:24:06.072Z,20.44
2023-05-09T15:26:34.126Z,20.51
2023-05-09T15:29:00.726Z,20.48
2023-05-09T15:31:32.489Z,20.35
2023-05-09T15:34:00.318Z,20.34
2023-05-09T15:36:28.322Z,20.20
2023-05-09T15:38:55.088Z,20.09
2023-05-09T15:41:21.797Z,19.74
2023-05-09T15:43:50.055Z,19.64
2023-05-09T15:46:16.652Z,19.50
2023-05-09T15:48:43.370Z,19.44
2023-05-09T15:51:10.228Z,19.33
2023-05-09T15:53:36.925Z,19.10
2023-05-09T15:56:03.795Z,19.15
2023-05-09T15:58:30.539Z,19.08
2023-05-09T16:00:58.527Z,19.02
2023-05-09T16:03:25.524Z,18.87
2023-05-09T16:05:52.351Z,18.54
2023-05-09T16:08:18.984Z,18.37
2023-05-09T16:10:45.837Z,18.28
2023-05-09T16:13:12.464Z,18.34
2023-05-09T16:15:39.017Z,18.17
2023-05-09T16:18:07.242Z,18.41
2023-05-09T16:20:33.834Z,18.30
2023-05-09T16:23:00.454Z,18.29
2023-05-09T16:25:27.044Z,18.26
2023-05-09T16:27:53.760Z,18.18
2023-05-09T16:30:20.337Z,18.17
2023-05-09T16:32:47.022Z,18.12
2023-05-09T16:35:14.911Z,18.06
2023-05-09T16:37:41.584Z,18.05
2023-05-09T16:40:09.317Z,18.01
2023-05-09T16:42:36.034Z,17.96
2023-05-09T16:45:02.650Z,18.03
2023-05-09T16:47:29.355Z,17.98
2023-05-09T16:49:55.958Z,17.86
2023-05-09T16:52:24.155Z,17.87
2023-05-09T16:54:50.689Z,17.85
2023-05-09T16:57:17.313Z,17.82
2023-05-09T16:59:43.904Z,17.82
2023-05-09T17:02:10.888Z,17.84
2023-05-09T17:04:38.011Z,17.82
2023-05-09T17:07:04.780Z,17.81
2023-05-09T17:09:32.919Z,17.77
2023-05-09T17:11:59.837Z,17.74
2023-05-09T17:14:26.400Z,17.66
2023-05-09T17:16:53.551Z,17.70
2023-05-09T17:19:20.305Z,17.69
2023-05-09T17:21:46.968Z,17.68
2023-05-09T17:24:13.604Z,17.66
2023-05-09T17:26:41.612Z,17.65
2023-05-09T17:29:08.141Z,17.63
2023-05-09T17:31:37.265Z,17.63
2023-05-09T17:34:06.771Z,17.46
2023-05-09T17:36:33.397Z,17.59
2023-05-09T17:39:00.298Z,17.57
2023-05-09T17:41:26.905Z,17.59
2023-05-09T17:43:54.851Z,17.56
2023-05-09T17:46:21.564Z,17.54
2023-05-09T17:48:48.173Z,17.53
2023-05-09T17:51:14.870Z,17.49
2023-05-09T17:53:41.496Z,17.47
2023-05-09T17:56:08.266Z,17.43
2023-05-09T17:58:34.843Z,17.39
2023-05-09T18:01:02.991Z,17.38
2023-05-09T18:03:29.671Z,17.39
2023-05-09T18:05:56.324Z,17.36
2023-05-09T18:08:22.972Z,17.32
2023-05-09T18:10:49.701Z,17.31
2023-05-09T18:13:16.292Z,17.13
2023-05-09T18:15:43.074Z,17.25
2023-05-09T18:18:12.881Z,17.14
2023-05-09T18:20:41.179Z,17.20
2023-05-09T18:23:07.780Z,17.16
2023-05-09T18:25:34.459Z,17.15
2023-05-09T18:28:01.031Z,17.17
2023-05-09T18:30:27.675Z,17.14
2023-05-09T18:32:54.389Z,17.13
2023-05-09T18:35:22.619Z,17.13
2023-05-09T18:37:49.291Z,17.11
2023-05-09T18:40:16.426Z,17.07
2023-05-09T18:42:43.244Z,16.90
2023-05-09T18:45:10.809Z,17.00
2023-05-09T18:47:37.783Z,16.97
2023-05-09T18:50:05.440Z,16.95
2023-05-09T18:52:33.360Z,16.96
2023-05-09T18:55:00.028Z,16.94
2023-05-09T18:57:26.597Z,16.87
2023-05-09T18:59:53.277Z,16.88
2023-05-09T19:02:20.162Z,16.77
2023-05-09T19:04:46.819Z,16.84
2023-05-09T19:07:13.518Z,16.88
2023-05-09T19:09:41.730Z,16.85
2023-05-09T19:12:08.260Z,16.84
2023-05-09T19:14:35.154Z,16.78
2023-05-09T19:17:01.804Z,16.83
2023-05-09T19:19:28.460Z,16.81
2023-05-09T19:21:55.204Z,16.78
2023-05-09T19:24:21.918Z,16.77
2023-05-09T19:26:50.193Z,16.73
2023-05-09T19:29:16.867Z,16.70
2023-05-09T19:31:43.394Z,16.69
2023-05-09T19:34:10.057Z,16.62
2023-05-09T19:36:36.750Z,16.58
2023-05-09T19:39:03.458Z,16.58
2023-05-09T19:41:29.994Z,16.59
2023-05-09T19:43:57.987Z,16.56
2023-05-09T19:46:24.542Z,16.54
2023-05-09T19:48:51.827Z,16.50
2023-05-09T19:51:18.362Z,16.48
2023-05-09T19:53:45.092Z,16.44
2023-05-09T19:56:11.625Z,16.45
2023-05-09T19:58:38.368Z,16.43
2023-05-09T20:01:06.265Z,16.43
2023-05-09T20:03:33.355Z,16.43
2023-05-09T20:05:59.958Z,16.42
2023-05-09T20:08:26.634Z,16.40
2023-05-09T20:10:53.969Z,16.41
2023-05-09T20:13:20.703Z,16.39
2023-05-09T20:15:47.457Z,16.33
2023-05-09T20:18:15.465Z,16.35
2023-05-09T20:20:42.556Z,16.07
2023-05-09T20:23:09.223Z,16.01
2023-05-09T20:25:36.140Z,15.88
2023-05-09T20:28:02.811Z,15.54
2023-05-09T20:30:29.397Z,15.50
2023-05-09T20:32:56.019Z,15.53
2023-05-09T20:35:24.390Z,15.40
2023-05-09T20:37:51.089Z,15.13
2023-05-09T20:40:17.916Z,14.98
2023-05-09T20:42:44.673Z,14.95
2023-05-09T20:45:11.536Z,14.87
2023-05-09T20:47:38.197Z,14.71
2023-05-09T20:50:05.487Z,14.50
2023-05-09T20:52:33.520Z,14.34
2023-05-09T20:55:00.169Z,14.32
2023-05-09T20:57:26.780Z,14.26
2023-05-09T20:59:53.343Z,14.28
2023-05-09T21:02:20.088Z,14.28
2023-05-09T21:04:46.684Z,14.25
2023-05-09T21:07:13.294Z,14.21
2023-05-09T21:09:41.179Z,14.21
2023-05-09T21:12:09.844Z,14.18
2023-05-09T21:14:37.671Z,13.97
2023-05-09T21:17:04.278Z,14.03
2023-05-09T21:19:30.892Z,14.00
2023-05-09T21:21:58.212Z,13.89
2023-05-09T21:24:24.840Z,13.92
2023-05-09T21:26:52.780Z,13.97
2023-05-09T21:29:19.313Z,13.91
2023-05-09T21:31:45.872Z,13.94
2023-05-09T21:34:12.510Z,13.88
2023-05-09T21:36:40.108Z,13.83
2023-05-09T21:39:07.901Z,13.88
2023-05-09T21:41:34.720Z,13.92
2023-05-09T21:44:02.813Z,13.86
2023-05-09T21:46:31.133Z,13.75
2023-05-09T21:48:58.052Z,13.83
2023-05-09T21:51:24.647Z,13.85
2023-05-09T21:53:51.196Z,13.75
2023-05-09T21:56:17.882Z,13.80
2023-05-09T21:58:44.422Z,13.85
2023-05-09T22:01:12.353Z,13.89
2023-05-09T22:03:38.965Z,13.90
2023-05-09T22:06:05.808Z,13.91
2023-05-09T22:08:32.378Z,13.88
2023-05-09T22:10:58.982Z,13.93
2023-05-09T22:13:25.818Z,13.91
2023-05-09T22:15:52.606Z,13.92
2023-05-09T22:18:20.586Z,13.94
2023-05-09T22:20:47.376Z,13.95
2023-05-09T22:23:13.917Z,13.87
2023-05-09T22:25:40.542Z,13.86
2023-05-09T22:28:07.094Z,13.90
2023-05-09T22:30:33.693Z,13.90
2023-05-09T22:33:00.466Z,13.92
2023-05-09T22:35:28.403Z,13.92
2023-05-09T22:37:54.936Z,13.94
2023-05-09T22:40:21.641Z,13.95
2023-05-09T22:42:48.208Z,13.92
2023-05-09T22:45:14.799Z,13.90
2023-05-09T22:47:41.693Z,13.86
2023-05-09T22:50:09.525Z,13.92
2023-05-09T22:52:37.412Z,13.84
2023-05-09T22:55:04.762Z,13.89
2023-05-09T22:57:31.331Z,13.89
2023-05-09T22:59:57.900Z,13.91
2023-05-09T23:02:25.550Z,13.84
2023-05-09T23:04:52.161Z,13.95
2023-05-09T23:07:18.811Z,13.89
2023-05-09T23:09:46.737Z,13.90
2023-05-09T23:12:13.276Z,13.88
2023-05-09T23:14:39.812Z,13.73
2023-05-09T23:17:06.359Z,13.77
2023-05-09T23:19:32.947Z,13.80
2023-05-09T23:21:59.631Z,13.73
2023-05-09T23:24:26.177Z,13.75
2023-05-09T23:26:54.929Z,13.78
2023-05-09T23:29:21.545Z,13.75
2023-05-09T23:31:48.299Z,13.78
2023-05-09T23:34:14.921Z,13.81
2023-05-09T23:36:41.450Z,13.84
2023-05-09T23:39:08.084Z,13.76
2023-05-09T23:41:35.268Z,13.68
2023-05-09T23:44:03.343Z,13.65
2023-05-09T23:46:30.246Z,13.63
2023-05-09T23:48:56.791Z,13.70
2023-05-09T23:51:23.348Z,13.69
2023-05-09T23:53:49.889Z,13.52
2023-05-09T23:56:16.501Z,13.57
2023-05-09T23:58:43.098Z,13.57
